MYNN

Lynden Pindling International Airport

Nassau, , Bahamas
MYNN 201000Z 2012/2112 15011KT 9999 FEW015CB SCT018 BKN250
Issued Valid From Valid To
Jul-20 @ 10:00 UTC
(4 hours ago)
Jul-20 @ 12:00 UTC
(2 hours ago)
Jul-21 @ 12:00 UTC
(in 22 hours)
Jul-20 @ 12:00 to Jul-21 @ 12:00
MYNN 201000Z 2012/2112 15011KT 9999 FEW015CB SCT018 BKN250
Wind Visibility Clouds
150° at 11 knots 10,000+ meters
  • Few at 1,500' AGL
  • Scattered at 1,800' AGL
  • Broken at 25,000' AGL
MYNN 201000Z 2012/2112 15011KT 9999 FEW015CB SCT018 BKN250
Issued Jul-20 @ 10:00 UTC
(4 hours ago)
Valid From Jul-20 @ 12:00 UTC
(2 hours ago)
Valid To Jul-21 @ 12:00 UTC
(in 22 hours)
Jul-20 @ 12:00 - Jul-21 @ 12:00
Wind Visibility
150° at 11 knots 10,000+ meters
Clouds
  • Few at 1,500' AGL
  • Scattered at 1,800' AGL
  • Broken at 25,000' AGL